createdAt,value
2022-09-06T00:01:01.080Z,9.27
2022-09-06T00:03:28.537Z,9.23
2022-09-06T00:05:55.951Z,9.17
2022-09-06T00:08:23.052Z,9.07
2022-09-06T00:11:01.056Z,8.98
2022-09-06T00:13:28.799Z,8.87
2022-09-06T00:15:56.215Z,8.79
2022-09-06T00:18:23.871Z,8.76
2022-09-06T00:20:51.065Z,8.77
2022-09-06T00:23:18.469Z,8.81
2022-09-06T00:25:45.621Z,8.82
2022-09-06T00:28:12.759Z,8.90
2022-09-06T00:30:40.158Z,8.96
2022-09-06T00:33:07.788Z,8.98
2022-09-06T00:35:35.267Z,8.97
2022-09-06T00:38:02.812Z,8.90
2022-09-06T00:40:32.829Z,8.89
2022-09-06T00:42:59.896Z,8.87
2022-09-06T00:45:27.834Z,8.87
2022-09-06T00:47:55.473Z,8.39
2022-09-06T00:50:22.777Z,8.94
2022-09-06T00:52:51.940Z,8.98
2022-09-06T00:55:20.115Z,9.04
2022-09-06T00:57:51.157Z,9.12
2022-09-06T01:00:19.252Z,9.14
2022-09-06T01:02:46.870Z,9.12
2022-09-06T01:05:14.649Z,9.10
2022-09-06T01:07:48.009Z,9.11
2022-09-06T01:10:24.149Z,9.13
2022-09-06T01:13:14.505Z,9.13
2022-09-06T01:15:51.366Z,9.05
2022-09-06T01:18:21.952Z,9.06
2022-09-06T01:20:55.171Z,9.03
2022-09-06T01:23:29.297Z,8.98
2022-09-06T01:26:05.779Z,8.99
2022-09-06T01:28:33.107Z,9.03
2022-09-06T01:31:17.956Z,9.08
2022-09-06T01:33:48.568Z,9.12
2022-09-06T01:36:19.246Z,9.18
2022-09-06T01:38:46.668Z,9.23
2022-09-06T01:41:14.224Z,9.26
2022-09-06T01:43:44.243Z,9.28
2022-09-06T01:46:20.951Z,9.27
2022-09-06T01:48:51.437Z,9.25
2022-09-06T01:51:30.044Z,9.25
2022-09-06T01:54:15.765Z,9.29
2022-09-06T01:56:52.578Z,9.32
2022-09-06T01:59:30.770Z,9.32
2022-09-06T02:02:08.848Z,9.32
2022-09-06T02:04:35.981Z,9.30
2022-09-06T02:07:10.889Z,9.25
2022-09-06T02:09:41.353Z,9.19
2022-09-06T02:12:12.661Z,9.17
2022-09-06T02:14:43.639Z,9.19
2022-09-06T02:17:13.731Z,9.19
2022-09-06T02:20:01.085Z,9.16
2022-09-06T02:22:31.108Z,9.14
2022-09-06T02:24:59.758Z,9.13
2022-09-06T02:27:27.640Z,9.15
2022-09-06T02:29:55.300Z,9.18
2022-09-06T02:32:23.764Z,9.23
2022-09-06T02:34:52.755Z,9.27
2022-09-06T02:37:20.538Z,9.29
2022-09-06T02:39:47.675Z,9.29
2022-09-06T02:42:15.900Z,9.28
2022-09-06T02:44:43.626Z,9.28
2022-09-06T02:47:10.769Z,9.24
2022-09-06T02:49:37.918Z,9.22
2022-09-06T02:52:05.569Z,9.20
2022-09-06T02:54:32.904Z,9.19
2022-09-06T02:57:00.308Z,9.23
2022-09-06T02:59:28.093Z,9.26
2022-09-06T03:01:55.299Z,9.28
2022-09-06T03:04:22.397Z,9.27
2022-09-06T03:06:50.065Z,9.30
2022-09-06T03:09:17.126Z,9.34
2022-09-06T03:11:44.543Z,9.36
2022-09-06T03:14:11.975Z,9.35
2022-09-06T03:16:39.113Z,9.35
2022-09-06T03:19:06.464Z,9.35
2022-09-06T03:21:34.208Z,9.37
2022-09-06T03:24:01.744Z,9.38
2022-09-06T03:26:30.349Z,9.33
2022-09-06T03:28:57.744Z,9.37
2022-09-06T03:31:25.045Z,9.43
2022-09-06T03:33:52.208Z,9.47
2022-09-06T03:36:19.810Z,9.51
2022-09-06T03:38:47.173Z,9.56
2022-09-06T03:41:14.290Z,9.58
2022-09-06T03:43:41.792Z,9.64
2022-09-06T03:46:09.080Z,9.71
2022-09-06T03:48:36.550Z,9.76
2022-09-06T03:51:04.010Z,9.80
2022-09-06T03:53:31.250Z,9.77
2022-09-06T03:55:58.945Z,9.75
2022-09-06T03:58:30.004Z,9.78
2022-09-06T04:01:01.647Z,9.82
2022-09-06T04:03:28.954Z,9.87
2022-09-06T04:05:56.236Z,9.95
2022-09-06T04:08:23.352Z,10.01
2022-09-06T04:10:52.945Z,10.06
2022-09-06T04:13:21.230Z,10.14
2022-09-06T04:15:48.582Z,10.25
2022-09-06T04:18:16.241Z,9.92
2022-09-06T04:20:43.642Z,10.55
2022-09-06T04:23:11.026Z,10.57
2022-09-06T04:25:38.472Z,10.59
2022-09-06T04:28:06.284Z,10.60
2022-09-06T04:30:33.633Z,10.65
2022-09-06T04:33:00.868Z,10.74
2022-09-06T04:35:28.368Z,10.81
2022-09-06T04:37:55.762Z,10.80
2022-09-06T04:40:23.139Z,10.80
2022-09-06T04:42:50.369Z,10.81
2022-09-06T04:45:17.497Z,10.87
2022-09-06T04:47:44.639Z,10.88
2022-09-06T04:50:12.143Z,10.87
2022-09-06T04:52:39.216Z,10.79
2022-09-06T04:55:06.629Z,10.83
2022-09-06T04:57:34.221Z,10.89
2022-09-06T05:00:01.307Z,10.90
2022-09-06T05:02:31.183Z,10.98
2022-09-06T05:04:58.486Z,10.83
2022-09-06T05:07:26.269Z,11.53
2022-09-06T05:09:53.670Z,11.61
2022-09-06T05:12:20.884Z,11.64
2022-09-06T05:14:48.045Z,11.74
2022-09-06T05:17:15.288Z,11.85
2022-09-06T05:19:42.464Z,11.91
2022-09-06T05:22:11.397Z,11.99
2022-09-06T05:24:39.222Z,12.11
2022-09-06T05:27:07.792Z,12.17
2022-09-06T05:29:35.079Z,12.14
2022-09-06T05:32:02.589Z,12.10
2022-09-06T05:34:29.995Z,12.03
2022-09-06T05:36:57.247Z,11.92
2022-09-06T05:39:24.935Z,11.93
2022-09-06T05:41:52.265Z,11.99
2022-09-06T05:44:19.532Z,12.13
2022-09-06T05:46:46.817Z,12.15
2022-09-06T05:49:14.415Z,12.05
2022-09-06T05:51:41.678Z,11.96
2022-09-06T05:54:11.031Z,12.06
2022-09-06T05:56:38.447Z,12.20
2022-09-06T05:59:06.178Z,12.28
2022-09-06T06:01:33.457Z,12.20
2022-09-06T06:04:02.604Z,12.23
2022-09-06T06:06:31.005Z,12.39
2022-09-06T06:08:58.579Z,12.44
2022-09-06T06:11:27.316Z,12.40
2022-09-06T06:13:54.577Z,12.46
2022-09-06T06:16:22.615Z,12.56
2022-09-06T06:18:52.297Z,12.57
2022-09-06T06:21:23.993Z,12.57
2022-09-06T06:23:55.403Z,12.64
2022-09-06T06:26:24.177Z,12.75
2022-09-06T06:28:51.896Z,12.85
2022-09-06T06:31:21.485Z,12.86
2022-09-06T06:33:49.232Z,12.78
2022-09-06T06:36:16.558Z,12.60
2022-09-06T06:38:44.858Z,12.50
2022-09-06T06:41:13.146Z,12.49
2022-09-06T06:43:40.465Z,12.53
2022-09-06T06:46:09.099Z,12.74
2022-09-06T06:48:36.876Z,13.47
2022-09-06T06:51:04.336Z,13.65
2022-09-06T06:53:33.234Z,13.51
2022-09-06T06:56:00.725Z,13.20
2022-09-06T06:58:28.392Z,12.96
2022-09-06T07:00:56.363Z,12.64
2022-09-06T07:03:23.507Z,12.45
2022-09-06T07:08:38.576Z,12.27
2022-09-06T07:11:06.525Z,12.58
2022-09-06T07:13:34.387Z,12.76
2022-09-06T07:16:20.758Z,12.80
2022-09-06T07:18:50.933Z,12.94
2022-09-06T07:24:10.234Z,13.11
2022-09-06T07:26:39.717Z,13.58
2022-09-06T07:29:08.170Z,13.69
2022-09-06T07:34:26.058Z,13.45
2022-09-06T07:36:54.353Z,13.68
2022-09-06T07:39:21.698Z,14.83
2022-09-06T07:41:49.201Z,17.14
2022-09-06T07:44:16.919Z,16.97
2022-09-06T07:46:44.407Z,17.07
2022-09-06T07:49:11.653Z,17.19
2022-09-06T07:51:39.401Z,17.23
2022-09-06T07:54:28.889Z,17.12
2022-09-06T07:56:55.129Z,16.55
2022-09-06T07:59:22.730Z,15.94
2022-09-06T08:01:50.592Z,15.39
2022-09-06T08:04:18.004Z,14.95
2022-09-06T08:09:36.333Z,14.38
2022-09-06T08:12:07.115Z,14.40
2022-09-06T08:14:35.103Z,14.59
2022-09-06T08:17:03.039Z,15.03
2022-09-06T08:19:30.443Z,15.36
2022-09-06T08:21:57.909Z,15.40
2022-09-06T08:24:25.365Z,15.08
2022-09-06T08:26:52.838Z,14.64
2022-09-06T08:29:20.549Z,14.09
2022-09-06T08:31:48.335Z,13.58
2022-09-06T08:34:16.167Z,13.41
2022-09-06T08:36:44.363Z,13.54
2022-09-06T08:39:12.177Z,14.25
2022-09-06T08:41:58.730Z,14.95
2022-09-06T08:47:16.448Z,17.43
2022-09-06T08:49:47.941Z,16.98
2022-09-06T08:52:21.667Z,16.36
2022-09-06T08:55:04.119Z,15.87
2022-09-06T08:57:31.470Z,15.76
2022-09-06T09:00:02.413Z,15.81
2022-09-06T09:02:43.080Z,15.82
2022-09-06T09:05:16.382Z,15.73
2022-09-06T09:07:45.346Z,15.44
2022-09-06T09:10:24.445Z,15.08
2022-09-06T09:12:52.184Z,14.65
2022-09-06T09:15:20.201Z,14.31
2022-09-06T09:17:47.687Z,13.86
2022-09-06T09:20:15.565Z,14.36
2022-09-06T09:22:43.709Z,14.72
2022-09-06T09:25:16.696Z,15.19
2022-09-06T09:27:44.946Z,15.64
2022-09-06T09:33:00.567Z,15.69
2022-09-06T09:35:27.862Z,15.46
2022-09-06T09:38:09.299Z,15.23
2022-09-06T09:40:49.426Z,14.99
2022-09-06T09:43:22.884Z,14.82
2022-09-06T09:46:09.945Z,14.60
2022-09-06T09:48:38.073Z,14.51
2022-09-06T09:51:26.568Z,14.42
2022-09-06T09:54:02.443Z,14.59
2022-09-06T09:56:41.904Z,14.78
2022-09-06T09:59:23.690Z,15.09
2022-09-06T10:01:52.397Z,14.99
2022-09-06T10:07:16.556Z,14.29
2022-09-06T10:09:46.687Z,14.01
2022-09-06T10:12:17.126Z,13.85
2022-09-06T10:14:45.967Z,13.87
2022-09-06T10:17:42.570Z,14.07
2022-09-06T10:20:10.859Z,14.37
2022-09-06T10:22:51.069Z,14.66
2022-09-06T10:25:38.340Z,15.07
2022-09-06T10:28:19.641Z,15.51
2022-09-06T10:30:52.780Z,15.88
2022-09-06T10:33:20.168Z,15.92
2022-09-06T10:35:47.714Z,15.68
2022-09-06T10:38:14.817Z,15.37
2022-09-06T10:40:41.854Z,15.02
2022-09-06T10:43:14.273Z,14.72
2022-09-06T10:45:46.851Z,14.43
2022-09-06T10:48:40.500Z,14.12
2022-09-06T10:51:07.576Z,13.70
2022-09-06T10:53:43.840Z,13.48
2022-09-06T10:56:13.533Z,13.41
2022-09-06T11:01:38.374Z,13.58
2022-09-06T11:04:12.770Z,13.44
2022-09-06T11:06:45.621Z,13.22
2022-09-06T11:09:18.566Z,13.14
2022-09-06T11:11:50.858Z,13.01
2022-09-06T11:14:20.668Z,12.90
2022-09-06T11:17:07.946Z,13.01
2022-09-06T11:19:41.269Z,13.08
2022-09-06T11:22:11.767Z,13.10
2022-09-06T11:25:08.349Z,13.13
2022-09-06T11:27:38.381Z,13.05
2022-09-06T11:30:06.960Z,12.92
2022-09-06T11:32:48.811Z,12.85
2022-09-06T11:35:24.087Z,12.94
2022-09-06T11:38:00.353Z,12.98
2022-09-06T11:40:30.139Z,12.97
2022-09-06T11:42:59.510Z,12.97
2022-09-06T11:45:46.077Z,13.06
2022-09-06T11:48:26.697Z,13.18
2022-09-06T11:50:54.539Z,13.27
2022-09-06T11:53:23.311Z,13.22
2022-09-06T11:55:52.037Z,13.14
2022-09-06T11:58:48.863Z,13.20
2022-09-06T12:01:16.796Z,13.33
2022-09-06T12:04:09.880Z,13.56
2022-09-06T12:06:42.180Z,13.87
2022-09-06T12:09:29.664Z,13.96
2022-09-06T12:11:57.890Z,14.14
2022-09-06T12:14:42.901Z,14.36
2022-09-06T12:17:11.598Z,14.31
2022-09-06T12:19:49.544Z,14.08
2022-09-06T12:22:48.983Z,13.72
2022-09-06T12:25:19.479Z,13.35
2022-09-06T12:27:57.085Z,13.05
2022-09-06T12:30:50.556Z,12.74
2022-09-06T12:33:39.015Z,12.40
2022-09-06T12:36:32.627Z,12.12
2022-09-06T12:39:10.198Z,11.97
2022-09-06T12:41:43.257Z,11.96
2022-09-06T12:44:11.223Z,12.06
2022-09-06T12:46:40.099Z,12.18
2022-09-06T12:49:08.989Z,12.37
2022-09-06T12:51:37.595Z,12.64
2022-09-06T12:54:06.289Z,12.85
2022-09-06T12:56:34.690Z,13.01
2022-09-06T12:59:11.555Z,13.14
2022-09-06T13:01:39.467Z,13.13
2022-09-06T13:04:12.493Z,13.07
2022-09-06T13:06:42.258Z,12.93
2022-09-06T13:09:13.985Z,12.82
2022-09-06T13:11:44.755Z,12.72
2022-09-06T13:14:14.654Z,12.60
2022-09-06T13:16:49.532Z,12.44
2022-09-06T13:19:19.069Z,12.30
2022-09-06T13:21:46.822Z,12.15
2022-09-06T13:24:21.638Z,12.10
2022-09-06T13:26:49.694Z,12.12
2022-09-06T13:29:16.834Z,12.20
2022-09-06T13:31:45.612Z,12.25
2022-09-06T13:34:19.937Z,12.24
2022-09-06T13:36:54.099Z,12.25
2022-09-06T13:39:34.545Z,12.20
2022-09-06T13:42:03.457Z,12.16
2022-09-06T13:44:31.724Z,12.21
2022-09-06T13:46:59.002Z,12.29
2022-09-06T13:49:26.577Z,12.41
2022-09-06T13:51:54.546Z,12.52
2022-09-06T13:54:22.943Z,12.61
2022-09-06T13:56:50.394Z,12.65
2022-09-06T13:59:17.656Z,12.66
2022-09-06T14:01:54.198Z,12.66
2022-09-06T14:04:21.683Z,12.59
2022-09-06T14:06:49.343Z,12.44
2022-09-06T14:09:16.886Z,12.27
2022-09-06T14:11:48.232Z,12.14
2022-09-06T14:14:17.900Z,11.97
2022-09-06T14:16:45.488Z,11.88
2022-09-06T14:19:12.587Z,11.79
2022-09-06T14:21:58.105Z,11.67
2022-09-06T14:24:25.276Z,11.58
2022-09-06T14:26:52.548Z,11.57
2022-09-06T14:29:19.876Z,11.54
2022-09-06T14:31:48.556Z,11.49
2022-09-06T14:34:15.922Z,11.43
2022-09-06T14:36:43.328Z,11.38
2022-09-06T14:39:10.485Z,11.31
2022-09-06T14:41:37.579Z,11.27
2022-09-06T14:44:05.117Z,11.25
2022-09-06T14:46:32.357Z,11.28
2022-09-06T14:49:04.491Z,11.28
2022-09-06T14:51:32.022Z,11.32
2022-09-06T14:54:00.525Z,11.40
2022-09-06T14:56:27.771Z,11.47
2022-09-06T14:59:01.258Z,11.03
2022-09-06T15:01:35.765Z,11.59
2022-09-06T15:04:16.067Z,11.63
2022-09-06T15:06:48.969Z,11.65
2022-09-06T15:09:21.653Z,11.58
2022-09-06T15:11:50.854Z,11.48
2022-09-06T15:14:37.764Z,11.35
2022-09-06T15:17:09.008Z,11.25
2022-09-06T15:19:39.885Z,11.17
2022-09-06T15:22:09.754Z,11.11
2022-09-06T15:24:46.218Z,11.03
2022-09-06T15:27:15.053Z,10.97
2022-09-06T15:29:44.927Z,10.91
2022-09-06T15:32:13.915Z,10.86
2022-09-06T15:34:41.081Z,10.84
2022-09-06T15:37:08.237Z,10.82
2022-09-06T15:39:35.721Z,10.80
2022-09-06T15:42:03.045Z,10.79
2022-09-06T15:44:33.451Z,10.78
2022-09-06T15:47:04.195Z,10.77
2022-09-06T15:49:33.388Z,10.68
2022-09-06T15:52:04.484Z,10.57
2022-09-06T15:54:52.877Z,10.48
2022-09-06T15:57:23.481Z,10.39
2022-09-06T15:59:51.929Z,10.31
2022-09-06T16:02:21.709Z,10.26
2022-09-06T16:04:53.796Z,10.24
2022-09-06T16:07:22.274Z,10.21
2022-09-06T16:09:49.612Z,10.18
2022-09-06T16:12:22.185Z,10.15
2022-09-06T16:14:50.337Z,10.12
2022-09-06T16:17:22.084Z,10.08
2022-09-06T16:19:52.445Z,10.06
2022-09-06T16:22:20.378Z,10.06
2022-09-06T16:24:55.102Z,10.02
2022-09-06T16:27:24.745Z,10.00
2022-09-06T16:30:01.404Z,9.98
2022-09-06T16:32:33.056Z,9.95
2022-09-06T16:35:08.599Z,9.93
2022-09-06T16:37:39.519Z,9.94
2022-09-06T16:40:10.176Z,9.94
2022-09-06T16:42:38.112Z,9.97
2022-09-06T16:45:14.161Z,9.98
2022-09-06T16:47:42.681Z,9.97
2022-09-06T16:50:09.918Z,9.98
2022-09-06T16:52:42.997Z,9.93
2022-09-06T16:55:11.071Z,9.88
2022-09-06T16:57:45.650Z,9.85
2022-09-06T17:00:19.086Z,9.86
2022-09-06T17:02:47.944Z,9.86
2022-09-06T17:05:24.074Z,9.85
2022-09-06T17:07:52.292Z,9.85
2022-09-06T17:10:22.664Z,9.87
2022-09-06T17:12:52.119Z,9.88
2022-09-06T17:15:22.412Z,9.89
2022-09-06T17:17:52.281Z,9.92
2022-09-06T17:20:20.761Z,9.93
2022-09-06T17:22:51.790Z,9.92
2022-09-06T17:25:19.127Z,9.89
2022-09-06T17:27:48.727Z,9.90
2022-09-06T17:30:22.084Z,9.90
2022-09-06T17:32:50.442Z,9.87
2022-09-06T17:35:18.497Z,9.84
2022-09-06T17:37:50.573Z,9.81
2022-09-06T17:40:18.221Z,9.81
2022-09-06T17:42:46.172Z,9.81
2022-09-06T17:45:16.709Z,9.82
2022-09-06T17:47:44.075Z,9.81
2022-09-06T17:50:12.454Z,9.80
2022-09-06T17:52:40.712Z,9.81
2022-09-06T17:55:08.406Z,9.82
2022-09-06T17:57:36.277Z,9.81
2022-09-06T18:00:05.901Z,9.80
2022-09-06T18:02:34.832Z,9.80
2022-09-06T18:05:02.052Z,9.81
2022-09-06T18:07:32.816Z,9.80
2022-09-06T18:10:00.973Z,9.79
2022-09-06T18:12:33.383Z,9.75
2022-09-06T18:15:05.713Z,9.68
2022-09-06T18:17:33.405Z,9.63
2022-09-06T18:20:06.355Z,9.62
2022-09-06T18:22:33.953Z,9.60
2022-09-06T18:25:02.508Z,9.57
2022-09-06T18:27:32.532Z,9.54
2022-09-06T18:30:01.313Z,9.55
2022-09-06T18:32:33.642Z,9.54
2022-09-06T18:35:01.471Z,9.53
2022-09-06T18:40:56.840Z,9.56
2022-09-06T18:43:36.858Z,9.58
2022-09-06T18:46:06.198Z,9.57
2022-09-06T18:48:37.664Z,9.53
2022-09-06T18:51:05.815Z,9.51
2022-09-06T18:53:33.621Z,9.51
2022-09-06T18:56:01.626Z,9.47
2022-09-06T18:58:28.759Z,9.43
2022-09-06T19:01:02.455Z,9.41
2022-09-06T19:03:33.572Z,9.40
2022-09-06T19:06:10.485Z,9.41
2022-09-06T19:08:41.643Z,9.39
2022-09-06T19:11:10.422Z,9.37
2022-09-06T19:16:50.030Z,9.35
2022-09-06T19:19:18.387Z,9.35
2022-09-06T19:21:51.061Z,9.35
2022-09-06T19:24:27.278Z,9.37
2022-09-06T19:26:57.955Z,9.38
2022-09-06T19:29:27.237Z,9.32
2022-09-06T19:31:56.603Z,9.31
2022-09-06T19:34:27.349Z,9.31
2022-09-06T19:36:59.576Z,9.30
2022-09-06T19:39:36.323Z,9.30
2022-09-06T19:42:08.588Z,9.29
2022-09-06T19:44:39.874Z,9.29
2022-09-06T19:47:12.924Z,9.30
2022-09-06T19:49:44.882Z,9.29
2022-09-06T19:52:16.545Z,9.30
2022-09-06T19:54:45.276Z,9.32
2022-09-06T19:57:17.341Z,9.31
2022-09-06T19:59:45.257Z,9.33
2022-09-06T20:02:18.122Z,9.32
2022-09-06T20:04:53.843Z,9.31
2022-09-06T20:07:26.660Z,9.28
2022-09-06T20:10:02.485Z,9.23
2022-09-06T20:12:34.827Z,9.19
2022-09-06T20:15:02.331Z,9.17
2022-09-06T20:17:34.254Z,9.18
2022-09-06T20:20:03.771Z,9.19
2022-09-06T20:22:32.499Z,9.21
2022-09-06T20:25:02.903Z,9.23
2022-09-06T20:27:42.547Z,9.25
2022-09-06T20:30:20.090Z,9.26
2022-09-06T20:33:02.216Z,9.25
2022-09-06T20:35:33.921Z,9.26
2022-09-06T20:38:01.325Z,9.27
2022-09-06T20:40:28.439Z,9.27
2022-09-06T20:42:55.786Z,9.26
2022-09-06T20:45:25.739Z,9.25
2022-09-06T20:47:53.310Z,9.25
2022-09-06T20:50:21.091Z,9.25
2022-09-06T20:52:48.460Z,9.22
2022-09-06T20:55:15.561Z,9.18
2022-09-06T20:57:43.497Z,9.16
2022-09-06T21:00:14.220Z,9.16
2022-09-06T21:02:41.822Z,9.11
2022-09-06T21:05:09.013Z,9.09
2022-09-06T21:07:36.770Z,9.04
2022-09-06T21:10:04.046Z,9.02
2022-09-06T21:12:31.322Z,9.00
2022-09-06T21:14:59.157Z,9.01
2022-09-06T21:17:26.210Z,9.02
2022-09-06T21:19:53.731Z,8.99
2022-09-06T21:22:21.300Z,8.99
2022-09-06T21:24:49.200Z,9.01
2022-09-06T21:27:16.842Z,9.02
2022-09-06T21:29:44.177Z,9.00
2022-09-06T21:32:11.278Z,8.98
2022-09-06T21:34:38.264Z,8.98
2022-09-06T21:37:05.562Z,8.98
2022-09-06T21:39:32.709Z,8.98
2022-09-06T21:41:59.956Z,8.96
2022-09-06T21:44:27.209Z,8.95
2022-09-06T21:46:55.144Z,8.93
2022-09-06T21:49:22.355Z,8.96
2022-09-06T21:51:50.063Z,8.98
2022-09-06T21:54:17.207Z,8.97
2022-09-06T21:56:44.453Z,8.95
2022-09-06T21:59:11.846Z,8.92
2022-09-06T22:01:39.971Z,8.89
2022-09-06T22:04:07.668Z,8.89
2022-09-06T22:06:35.601Z,8.86
2022-09-06T22:09:05.114Z,8.84
2022-09-06T22:11:33.033Z,8.80
2022-09-06T22:14:01.381Z,8.75
2022-09-06T22:16:29.599Z,8.74
2022-09-06T22:18:56.950Z,8.72
2022-09-06T22:21:24.889Z,8.72
2022-09-06T22:23:53.775Z,8.71
2022-09-06T22:26:21.582Z,8.72
2022-09-06T22:28:52.526Z,8.74
2022-09-06T22:31:19.847Z,8.74
2022-09-06T22:33:47.181Z,8.72
2022-09-06T22:36:14.692Z,8.72
2022-09-06T22:38:41.868Z,8.71
2022-09-06T22:41:09.567Z,8.72
2022-09-06T22:43:36.837Z,8.74
2022-09-06T22:46:07.314Z,8.74
2022-09-06T22:48:34.722Z,8.76
2022-09-06T22:51:02.558Z,8.75
2022-09-06T22:53:30.341Z,8.68
2022-09-06T22:55:57.387Z,8.68
2022-09-06T22:58:25.659Z,8.64
2022-09-06T23:00:53.804Z,8.63
2022-09-06T23:03:21.395Z,8.62
2022-09-06T23:05:49.190Z,8.64
2022-09-06T23:08:16.459Z,8.65
2022-09-06T23:10:44.633Z,8.64
2022-09-06T23:13:12.242Z,8.62
2022-09-06T23:15:41.120Z,8.64
2022-09-06T23:18:08.636Z,8.65
2022-09-06T23:20:37.277Z,8.63
2022-09-06T23:23:04.943Z,8.64
2022-09-06T23:25:32.455Z,8.63
2022-09-06T23:28:00.784Z,8.62
2022-09-06T23:30:28.113Z,8.63
2022-09-06T23:32:56.607Z,8.60
2022-09-06T23:35:24.467Z,8.52
2022-09-06T23:37:51.649Z,8.47
2022-09-06T23:40:18.913Z,8.44
2022-09-06T23:42:46.735Z,8.42
2022-09-06T23:45:14.078Z,8.40
2022-09-06T23:47:41.782Z,8.38
2022-09-06T23:50:09.605Z,8.35
2022-09-06T23:52:36.891Z,7.35
2022-09-06T23:55:04.370Z,8.33
2022-09-06T23:57:31.764Z,8.32
2022-09-06T23:59:58.866Z,8.29
